sensor_id;sensor_type;location;lat;lon;timestamp;P1;durP1;ratioP1;P2;durP2;ratioP2
41221;SDS011;26952;42.884;23.918;2022-11-20T00:00:37;32.90;;;30.38;;
41221;SDS011;26952;42.884;23.918;2022-11-20T00:03:02;32.50;;;29.92;;
41221;SDS011;26952;42.884;23.918;2022-11-20T00:05:28;32.70;;;29.77;;
41221;SDS011;26952;42.884;23.918;2022-11-20T00:07:53;35.38;;;32.33;;
41221;SDS011;26952;42.884;23.918;2022-11-20T00:10:19;35.50;;;32.75;;
41221;SDS011;26952;42.884;23.918;2022-11-20T00:12:44;33.15;;;30.42;;
41221;SDS011;26952;42.884;23.918;2022-11-20T00:15:09;33.60;;;31.00;;
41221;SDS011;26952;42.884;23.918;2022-11-20T00:17:35;31.80;;;29.48;;
41221;SDS011;26952;42.884;23.918;2022-11-20T00:20:00;33.95;;;31.45;;
41221;SDS011;26952;42.884;23.918;2022-11-20T00:22:26;33.60;;;31.25;;
41221;SDS011;26952;42.884;23.918;2022-11-20T00:24:51;34.33;;;31.88;;
41221;SDS011;26952;42.884;23.918;2022-11-20T00:27:16;37.42;;;34.97;;
41221;SDS011;26952;42.884;23.918;2022-11-20T00:29:42;35.55;;;33.03;;
41221;SDS011;26952;42.884;23.918;2022-11-20T00:32:07;36.78;;;34.15;;
41221;SDS011;26952;42.884;23.918;2022-11-20T00:34:33;35.97;;;33.53;;
41221;SDS011;26952;42.884;23.918;2022-11-20T00:36:58;36.78;;;34.08;;
41221;SDS011;26952;42.884;23.918;2022-11-20T00:39:23;37.50;;;34.70;;
41221;SDS011;26952;42.884;23.918;2022-11-20T00:41:49;36.80;;;34.05;;
41221;SDS011;26952;42.884;23.918;2022-11-20T00:44:15;33.78;;;31.25;;
41221;SDS011;26952;42.884;23.918;2022-11-20T00:46:40;35.90;;;33.20;;
41221;SDS011;26952;42.884;23.918;2022-11-20T00:49:06;33.83;;;31.02;;
41221;SDS011;26952;42.884;23.918;2022-11-20T00:51:31;33.78;;;31.23;;
41221;SDS011;26952;42.884;23.918;2022-11-20T00:53:57;38.58;;;35.58;;
41221;SDS011;26952;42.884;23.918;2022-11-20T00:56:24;31.17;;;28.38;;
41221;SDS011;26952;42.884;23.918;2022-11-20T00:58:50;15.07;;;13.75;;
41221;SDS011;26952;42.884;23.918;2022-11-20T01:01:20;19.75;;;18.10;;
41221;SDS011;26952;42.884;23.918;2022-11-20T01:03:51;18.02;;;16.67;;
41221;SDS011;26952;42.884;23.918;2022-11-20T01:08:45;28.60;;;27.00;;
41221;SDS011;26952;42.884;23.918;2022-11-20T01:11:12;62.35;;;58.70;;
41221;SDS011;26952;42.884;23.918;2022-11-20T01:13:39;48.30;;;45.15;;
41221;SDS011;26952;42.884;23.918;2022-11-20T01:16:07;30.05;;;28.13;;
41221;SDS011;26952;42.884;23.918;2022-11-20T01:18:34;35.25;;;33.08;;
41221;SDS011;26952;42.884;23.918;2022-11-20T01:21:04;51.50;;;48.28;;
41221;SDS011;26952;42.884;23.918;2022-11-20T01:23:36;68.35;;;64.40;;
41221;SDS011;26952;42.884;23.918;2022-11-20T01:26:04;93.38;;;88.32;;
41221;SDS011;26952;42.884;23.918;2022-11-20T01:28:34;110.10;;;103.85;;
41221;SDS011;26952;42.884;23.918;2022-11-20T01:31:00;74.97;;;70.72;;
41221;SDS011;26952;42.884;23.918;2022-11-20T01:33:26;54.17;;;51.05;;
41221;SDS011;26952;42.884;23.918;2022-11-20T01:35:52;79.07;;;74.47;;
41221;SDS011;26952;42.884;23.918;2022-11-20T01:38:18;74.38;;;70.28;;
41221;SDS011;26952;42.884;23.918;2022-11-20T01:40:45;75.20;;;71.13;;
41221;SDS011;26952;42.884;23.918;2022-11-20T01:43:16;74.82;;;70.82;;
41221;SDS011;26952;42.884;23.918;2022-11-20T01:54:04;32.90;;;30.52;;
41221;SDS011;26952;42.884;23.918;2022-11-20T01:56:33;42.63;;;40.28;;
41221;SDS011;26952;42.884;23.918;2022-11-20T01:59:03;38.65;;;36.55;;
41221;SDS011;26952;42.884;23.918;2022-11-20T02:01:33;40.85;;;38.78;;
41221;SDS011;26952;42.884;23.918;2022-11-20T02:03:58;39.95;;;37.75;;
41221;SDS011;26952;42.884;23.918;2022-11-20T02:06:26;40.83;;;38.40;;
41221;SDS011;26952;42.884;23.918;2022-11-20T02:08:54;33.85;;;31.50;;
41221;SDS011;26952;42.884;23.918;2022-11-20T02:11:20;33.88;;;31.90;;
41221;SDS011;26952;42.884;23.918;2022-11-20T02:13:46;43.42;;;41.05;;
41221;SDS011;26952;42.884;23.918;2022-11-20T02:16:16;51.20;;;48.58;;
41221;SDS011;26952;42.884;23.918;2022-11-20T02:18:42;49.53;;;46.83;;
41221;SDS011;26952;42.884;23.918;2022-11-20T02:21:13;50.65;;;48.08;;
41221;SDS011;26952;42.884;23.918;2022-11-20T02:26:28;46.15;;;43.58;;
41221;SDS011;26952;42.884;23.918;2022-11-20T02:28:56;42.53;;;40.10;;
41221;SDS011;26952;42.884;23.918;2022-11-20T02:31:23;50.72;;;47.67;;
41221;SDS011;26952;42.884;23.918;2022-11-20T02:33:53;51.30;;;48.45;;
41221;SDS011;26952;42.884;23.918;2022-11-20T02:36:23;60.45;;;57.28;;
41221;SDS011;26952;42.884;23.918;2022-11-20T02:38:51;48.88;;;45.97;;
41221;SDS011;26952;42.884;23.918;2022-11-20T02:41:17;55.70;;;52.70;;
41221;SDS011;26952;42.884;23.918;2022-11-20T02:43:44;61.50;;;58.22;;
41221;SDS011;26952;42.884;23.918;2022-11-20T02:46:09;57.70;;;54.40;;
41221;SDS011;26952;42.884;23.918;2022-11-20T02:48:35;56.53;;;53.55;;
41221;SDS011;26952;42.884;23.918;2022-11-20T02:51:00;53.88;;;50.95;;
41221;SDS011;26952;42.884;23.918;2022-11-20T02:53:26;54.38;;;51.33;;
41221;SDS011;26952;42.884;23.918;2022-11-20T02:55:51;56.10;;;53.15;;
41221;SDS011;26952;42.884;23.918;2022-11-20T02:58:17;55.78;;;52.78;;
41221;SDS011;26952;42.884;23.918;2022-11-20T03:00:42;53.35;;;50.63;;
41221;SDS011;26952;42.884;23.918;2022-11-20T03:03:08;53.35;;;50.53;;
41221;SDS011;26952;42.884;23.918;2022-11-20T03:05:33;52.63;;;49.72;;
41221;SDS011;26952;42.884;23.918;2022-11-20T03:07:59;48.90;;;46.33;;
41221;SDS011;26952;42.884;23.918;2022-11-20T03:10:24;50.53;;;47.75;;
41221;SDS011;26952;42.884;23.918;2022-11-20T03:12:55;48.70;;;45.92;;
41221;SDS011;26952;42.884;23.918;2022-11-20T03:15:22;45.03;;;42.63;;
41221;SDS011;26952;42.884;23.918;2022-11-20T03:17:48;47.83;;;45.33;;
41221;SDS011;26952;42.884;23.918;2022-11-20T03:20:14;41.67;;;39.55;;
41221;SDS011;26952;42.884;23.918;2022-11-20T03:22:39;34.15;;;32.25;;
41221;SDS011;26952;42.884;23.918;2022-11-20T03:25:05;47.13;;;44.70;;
41221;SDS011;26952;42.884;23.918;2022-11-20T03:27:34;49.58;;;46.97;;
41221;SDS011;26952;42.884;23.918;2022-11-20T03:30:00;53.25;;;50.40;;
41221;SDS011;26952;42.884;23.918;2022-11-20T03:32:25;53.10;;;50.03;;
41221;SDS011;26952;42.884;23.918;2022-11-20T03:34:51;56.65;;;53.50;;
41221;SDS011;26952;42.884;23.918;2022-11-20T03:37:16;60.63;;;57.53;;
41221;SDS011;26952;42.884;23.918;2022-11-20T03:39:41;55.85;;;52.90;;
41221;SDS011;26952;42.884;23.918;2022-11-20T03:42:08;56.60;;;53.72;;
41221;SDS011;26952;42.884;23.918;2022-11-20T03:44:54;58.35;;;55.20;;
41221;SDS011;26952;42.884;23.918;2022-11-20T03:47:19;61.17;;;57.92;;
41221;SDS011;26952;42.884;23.918;2022-11-20T03:49:45;61.55;;;58.22;;
41221;SDS011;26952;42.884;23.918;2022-11-20T03:52:10;71.03;;;66.88;;
41221;SDS011;26952;42.884;23.918;2022-11-20T03:54:35;82.68;;;78.13;;
41221;SDS011;26952;42.884;23.918;2022-11-20T03:57:01;80.28;;;75.72;;
41221;SDS011;26952;42.884;23.918;2022-11-20T03:59:26;78.78;;;74.80;;
41221;SDS011;26952;42.884;23.918;2022-11-20T04:01:52;87.20;;;82.70;;
41221;SDS011;26952;42.884;23.918;2022-11-20T04:04:17;53.60;;;50.80;;
41221;SDS011;26952;42.884;23.918;2022-11-20T04:06:42;39.17;;;37.00;;
41221;SDS011;26952;42.884;23.918;2022-11-20T04:09:08;36.83;;;34.80;;
41221;SDS011;26952;42.884;23.918;2022-11-20T04:11:36;37.25;;;35.35;;
41221;SDS011;26952;42.884;23.918;2022-11-20T04:14:05;44.03;;;41.60;;
41221;SDS011;26952;42.884;23.918;2022-11-20T04:16:33;41.67;;;38.97;;
41221;SDS011;26952;42.884;23.918;2022-11-20T04:19:01;53.92;;;50.22;;
41221;SDS011;26952;42.884;23.918;2022-11-20T04:21:28;52.72;;;49.30;;
41221;SDS011;26952;42.884;23.918;2022-11-20T04:23:54;56.63;;;53.63;;
41221;SDS011;26952;42.884;23.918;2022-11-20T04:26:20;58.72;;;55.58;;
41221;SDS011;26952;42.884;23.918;2022-11-20T04:28:46;67.65;;;63.92;;
41221;SDS011;26952;42.884;23.918;2022-11-20T04:31:13;75.65;;;71.38;;
41221;SDS011;26952;42.884;23.918;2022-11-20T04:33:41;73.65;;;69.72;;
41221;SDS011;26952;42.884;23.918;2022-11-20T04:36:07;69.07;;;65.35;;
41221;SDS011;26952;42.884;23.918;2022-11-20T04:38:36;69.38;;;65.68;;
41221;SDS011;26952;42.884;23.918;2022-11-20T04:41:03;66.07;;;62.30;;
41221;SDS011;26952;42.884;23.918;2022-11-20T04:43:30;67.90;;;64.07;;
41221;SDS011;26952;42.884;23.918;2022-11-20T04:45:56;74.38;;;70.30;;
41221;SDS011;26952;42.884;23.918;2022-11-20T04:48:23;72.88;;;68.95;;
41221;SDS011;26952;42.884;23.918;2022-11-20T04:50:50;76.18;;;72.07;;
41221;SDS011;26952;42.884;23.918;2022-11-20T04:53:16;75.97;;;71.90;;
41221;SDS011;26952;42.884;23.918;2022-11-20T04:55:41;76.38;;;72.38;;
41221;SDS011;26952;42.884;23.918;2022-11-20T04:58:07;79.35;;;74.95;;
41221;SDS011;26952;42.884;23.918;2022-11-20T05:00:32;70.63;;;66.78;;
41221;SDS011;26952;42.884;23.918;2022-11-20T05:02:58;76.28;;;72.28;;
41221;SDS011;26952;42.884;23.918;2022-11-20T05:05:23;73.93;;;69.68;;
41221;SDS011;26952;42.884;23.918;2022-11-20T05:07:48;69.63;;;65.78;;
41221;SDS011;26952;42.884;23.918;2022-11-20T05:10:14;61.22;;;57.75;;
41221;SDS011;26952;42.884;23.918;2022-11-20T05:12:40;45.58;;;42.88;;
41221;SDS011;26952;42.884;23.918;2022-11-20T05:15:06;41.15;;;38.50;;
41221;SDS011;26952;42.884;23.918;2022-11-20T05:17:31;29.13;;;27.02;;
41221;SDS011;26952;42.884;23.918;2022-11-20T05:19:57;26.35;;;24.38;;
41221;SDS011;26952;42.884;23.918;2022-11-20T05:22:22;21.30;;;19.60;;
41221;SDS011;26952;42.884;23.918;2022-11-20T05:24:47;23.83;;;21.85;;
41221;SDS011;26952;42.884;23.918;2022-11-20T05:27:13;28.98;;;26.67;;
41221;SDS011;26952;42.884;23.918;2022-11-20T05:29:38;32.55;;;29.95;;
41221;SDS011;26952;42.884;23.918;2022-11-20T05:32:04;26.40;;;23.95;;
41221;SDS011;26952;42.884;23.918;2022-11-20T05:34:31;22.00;;;20.23;;
41221;SDS011;26952;42.884;23.918;2022-11-20T05:36:56;25.83;;;23.65;;
41221;SDS011;26952;42.884;23.918;2022-11-20T05:39:22;23.80;;;21.67;;
41221;SDS011;26952;42.884;23.918;2022-11-20T05:41:47;25.73;;;23.52;;
41221;SDS011;26952;42.884;23.918;2022-11-20T05:44:32;20.33;;;18.25;;
41221;SDS011;26952;42.884;23.918;2022-11-20T05:46:58;20.60;;;18.40;;
41221;SDS011;26952;42.884;23.918;2022-11-20T05:49:23;18.85;;;16.85;;
41221;SDS011;26952;42.884;23.918;2022-11-20T05:51:48;19.45;;;17.50;;
41221;SDS011;26952;42.884;23.918;2022-11-20T05:54:14;20.77;;;18.67;;
41221;SDS011;26952;42.884;23.918;2022-11-20T05:56:39;19.85;;;17.73;;
41221;SDS011;26952;42.884;23.918;2022-11-20T05:59:05;23.90;;;19.08;;
41221;SDS011;26952;42.884;23.918;2022-11-20T06:01:30;26.52;;;20.67;;
41221;SDS011;26952;42.884;23.918;2022-11-20T06:03:55;25.65;;;19.80;;
41221;SDS011;26952;42.884;23.918;2022-11-20T06:06:21;28.77;;;21.27;;
41221;SDS011;26952;42.884;23.918;2022-11-20T06:08:46;28.55;;;22.85;;
41221;SDS011;26952;42.884;23.918;2022-11-20T06:11:13;26.25;;;22.35;;
41221;SDS011;26952;42.884;23.918;2022-11-20T06:13:39;26.70;;;22.35;;
41221;SDS011;26952;42.884;23.918;2022-11-20T06:16:05;31.15;;;28.17;;
41221;SDS011;26952;42.884;23.918;2022-11-20T06:18:31;32.35;;;29.25;;
41221;SDS011;26952;42.884;23.918;2022-11-20T06:21:03;36.47;;;32.45;;
41221;SDS011;26952;42.884;23.918;2022-11-20T06:23:32;60.42;;;49.72;;
41221;SDS011;26952;42.884;23.918;2022-11-20T06:26:05;27.90;;;25.15;;
41221;SDS011;26952;42.884;23.918;2022-11-20T06:28:32;28.25;;;25.67;;
41221;SDS011;26952;42.884;23.918;2022-11-20T06:30:58;27.20;;;24.63;;
41221;SDS011;26952;42.884;23.918;2022-11-20T06:33:24;24.15;;;21.75;;
41221;SDS011;26952;42.884;23.918;2022-11-20T06:35:50;24.25;;;22.05;;
41221;SDS011;26952;42.884;23.918;2022-11-20T06:38:15;26.75;;;24.25;;
41221;SDS011;26952;42.884;23.918;2022-11-20T06:40:41;29.70;;;26.58;;
41221;SDS011;26952;42.884;23.918;2022-11-20T06:43:07;25.33;;;22.73;;
41221;SDS011;26952;42.884;23.918;2022-11-20T06:45:36;24.83;;;22.20;;
41221;SDS011;26952;42.884;23.918;2022-11-20T06:48:01;24.25;;;21.85;;
41221;SDS011;26952;42.884;23.918;2022-11-20T06:50:27;27.23;;;24.58;;
41221;SDS011;26952;42.884;23.918;2022-11-20T06:52:53;35.15;;;31.48;;
41221;SDS011;26952;42.884;23.918;2022-11-20T06:55:18;26.80;;;24.10;;
41221;SDS011;26952;42.884;23.918;2022-11-20T06:57:43;25.63;;;22.92;;
41221;SDS011;26952;42.884;23.918;2022-11-20T07:00:09;25.88;;;23.35;;
41221;SDS011;26952;42.884;23.918;2022-11-20T07:02:35;25.27;;;22.88;;
41221;SDS011;26952;42.884;23.918;2022-11-20T07:05:00;28.33;;;24.60;;
41221;SDS011;26952;42.884;23.918;2022-11-20T07:07:26;31.67;;;28.10;;
41221;SDS011;26952;42.884;23.918;2022-11-20T07:09:51;33.40;;;27.70;;
41221;SDS011;26952;42.884;23.918;2022-11-20T07:12:16;48.70;;;29.67;;
41221;SDS011;26952;42.884;23.918;2022-11-20T07:14:42;35.28;;;31.33;;
41221;SDS011;26952;42.884;23.918;2022-11-20T07:17:07;38.58;;;34.63;;
41221;SDS011;26952;42.884;23.918;2022-11-20T07:19:33;46.47;;;42.00;;
41221;SDS011;26952;42.884;23.918;2022-11-20T07:21:58;47.45;;;42.90;;
41221;SDS011;26952;42.884;23.918;2022-11-20T07:24:23;46.20;;;41.92;;
41221;SDS011;26952;42.884;23.918;2022-11-20T07:26:49;47.97;;;43.70;;
41221;SDS011;26952;42.884;23.918;2022-11-20T07:29:15;50.50;;;45.60;;
41221;SDS011;26952;42.884;23.918;2022-11-20T07:31:41;48.03;;;43.13;;
41221;SDS011;26952;42.884;23.918;2022-11-20T07:34:07;45.45;;;41.22;;
41221;SDS011;26952;42.884;23.918;2022-11-20T07:36:32;47.17;;;43.20;;
41221;SDS011;26952;42.884;23.918;2022-11-20T07:38:57;39.78;;;35.90;;
41221;SDS011;26952;42.884;23.918;2022-11-20T07:41:23;40.33;;;36.20;;
41221;SDS011;26952;42.884;23.918;2022-11-20T07:43:48;41.05;;;37.08;;
41221;SDS011;26952;42.884;23.918;2022-11-20T07:46:13;42.25;;;38.05;;
41221;SDS011;26952;42.884;23.918;2022-11-20T07:48:39;33.05;;;29.52;;
41221;SDS011;26952;42.884;23.918;2022-11-20T07:51:04;31.85;;;27.92;;
41221;SDS011;26952;42.884;23.918;2022-11-20T07:53:30;46.53;;;31.00;;
41221;SDS011;26952;42.884;23.918;2022-11-20T07:55:59;37.88;;;32.67;;
41221;SDS011;26952;42.884;23.918;2022-11-20T07:58:25;33.75;;;29.83;;
41221;SDS011;26952;42.884;23.918;2022-11-20T08:00:51;35.63;;;31.90;;
41221;SDS011;26952;42.884;23.918;2022-11-20T08:03:16;34.95;;;27.95;;
41221;SDS011;26952;42.884;23.918;2022-11-20T08:05:42;32.25;;;27.48;;
41221;SDS011;26952;42.884;23.918;2022-11-20T08:08:07;32.00;;;23.90;;
41221;SDS011;26952;42.884;23.918;2022-11-20T08:10:33;33.88;;;25.48;;
41221;SDS011;26952;42.884;23.918;2022-11-20T08:12:58;53.90;;;28.98;;
41221;SDS011;26952;42.884;23.918;2022-11-20T08:15:47;39.13;;;30.30;;
41221;SDS011;26952;42.884;23.918;2022-11-20T08:18:14;40.85;;;34.60;;
41221;SDS011;26952;42.884;23.918;2022-11-20T08:20:39;43.38;;;35.53;;
41221;SDS011;26952;42.884;23.918;2022-11-20T08:23:05;53.53;;;37.17;;
41221;SDS011;26952;42.884;23.918;2022-11-20T08:25:32;129.32;;;40.45;;
41221;SDS011;26952;42.884;23.918;2022-11-20T08:28:00;43.92;;;33.47;;
41221;SDS011;26952;42.884;23.918;2022-11-20T08:30:28;38.55;;;32.47;;
41221;SDS011;26952;42.884;23.918;2022-11-20T08:32:54;40.47;;;32.47;;
41221;SDS011;26952;42.884;23.918;2022-11-20T08:35:20;40.47;;;33.35;;
41221;SDS011;26952;42.884;23.918;2022-11-20T08:37:46;39.60;;;32.88;;
41221;SDS011;26952;42.884;23.918;2022-11-20T08:40:12;44.10;;;35.17;;
41221;SDS011;26952;42.884;23.918;2022-11-20T08:42:45;40.42;;;36.10;;
41221;SDS011;26952;42.884;23.918;2022-11-20T08:45:14;41.60;;;37.53;;
41221;SDS011;26952;42.884;23.918;2022-11-20T08:47:41;44.35;;;40.10;;
41221;SDS011;26952;42.884;23.918;2022-11-20T08:50:07;45.47;;;41.30;;
41221;SDS011;26952;42.884;23.918;2022-11-20T08:52:34;44.35;;;39.92;;
41221;SDS011;26952;42.884;23.918;2022-11-20T08:55:00;38.67;;;34.60;;
41221;SDS011;26952;42.884;23.918;2022-11-20T08:57:25;40.30;;;36.22;;
41221;SDS011;26952;42.884;23.918;2022-11-20T08:59:50;35.78;;;32.25;;
41221;SDS011;26952;42.884;23.918;2022-11-20T09:02:16;37.85;;;34.20;;
41221;SDS011;26952;42.884;23.918;2022-11-20T09:04:41;40.42;;;36.40;;
41221;SDS011;26952;42.884;23.918;2022-11-20T09:07:07;42.33;;;37.97;;
41221;SDS011;26952;42.884;23.918;2022-11-20T09:09:32;36.78;;;33.20;;
41221;SDS011;26952;42.884;23.918;2022-11-20T09:11:58;39.10;;;35.08;;
41221;SDS011;26952;42.884;23.918;2022-11-20T09:14:23;39.47;;;35.65;;
41221;SDS011;26952;42.884;23.918;2022-11-20T09:16:54;42.10;;;37.70;;
41221;SDS011;26952;42.884;23.918;2022-11-20T09:19:20;36.22;;;32.60;;
41221;SDS011;26952;42.884;23.918;2022-11-20T09:21:46;36.55;;;32.95;;
41221;SDS011;26952;42.884;23.918;2022-11-20T09:24:12;37.25;;;33.58;;
41221;SDS011;26952;42.884;23.918;2022-11-20T09:26:37;35.10;;;31.80;;
41221;SDS011;26952;42.884;23.918;2022-11-20T09:29:02;34.42;;;31.52;;
41221;SDS011;26952;42.884;23.918;2022-11-20T09:31:28;42.50;;;38.90;;
41221;SDS011;26952;42.884;23.918;2022-11-20T09:33:53;43.25;;;39.65;;
41221;SDS011;26952;42.884;23.918;2022-11-20T09:36:19;40.00;;;36.83;;
41221;SDS011;26952;42.884;23.918;2022-11-20T09:38:45;41.95;;;38.55;;
41221;SDS011;26952;42.884;23.918;2022-11-20T09:41:49;45.30;;;41.40;;
41221;SDS011;26952;42.884;23.918;2022-11-20T09:53:16;45.17;;;41.28;;
41221;SDS011;26952;42.884;23.918;2022-11-20T09:55:20;42.55;;;38.92;;
41221;SDS011;26952;42.884;23.918;2022-11-20T09:57:47;52.30;;;47.67;;
41221;SDS011;26952;42.884;23.918;2022-11-20T10:00:15;49.15;;;44.42;;
41221;SDS011;26952;42.884;23.918;2022-11-20T10:02:51;41.85;;;37.92;;
41221;SDS011;26952;42.884;23.918;2022-11-20T10:05:18;44.28;;;40.13;;
41221;SDS011;26952;42.884;23.918;2022-11-20T10:07:51;48.03;;;43.95;;
41221;SDS011;26952;42.884;23.918;2022-11-20T10:16:11;47.83;;;44.00;;
41221;SDS011;26952;42.884;23.918;2022-11-20T10:21:52;45.72;;;41.50;;
41221;SDS011;26952;42.884;23.918;2022-11-20T10:26:48;48.15;;;43.67;;
41221;SDS011;26952;42.884;23.918;2022-11-20T10:29:36;53.80;;;48.92;;
41221;SDS011;26952;42.884;23.918;2022-11-20T10:32:16;53.65;;;49.00;;
41221;SDS011;26952;42.884;23.918;2022-11-20T10:37:25;52.43;;;47.77;;
41221;SDS011;26952;42.884;23.918;2022-11-20T10:42:28;56.75;;;52.08;;
41221;SDS011;26952;42.884;23.918;2022-11-20T10:45:02;56.40;;;50.85;;
41221;SDS011;26952;42.884;23.918;2022-11-20T10:47:40;62.97;;;56.33;;
41221;SDS011;26952;42.884;23.918;2022-11-20T10:50:08;50.20;;;45.47;;
41221;SDS011;26952;42.884;23.918;2022-11-20T10:56:48;54.13;;;49.13;;
41221;SDS011;26952;42.884;23.918;2022-11-20T11:01:52;38.78;;;35.70;;
41221;SDS011;26952;42.884;23.918;2022-11-20T11:04:30;47.20;;;43.70;;
41221;SDS011;26952;42.884;23.918;2022-11-20T11:07:05;44.92;;;41.53;;
41221;SDS011;26952;42.884;23.918;2022-11-20T11:09:38;46.08;;;42.33;;
41221;SDS011;26952;42.884;23.918;2022-11-20T11:12:08;47.78;;;44.08;;
41221;SDS011;26952;42.884;23.918;2022-11-20T11:14:50;50.95;;;46.92;;
41221;SDS011;26952;42.884;23.918;2022-11-20T11:17:50;41.67;;;38.55;;
41221;SDS011;26952;42.884;23.918;2022-11-20T11:25:18;50.08;;;46.63;;
41221;SDS011;26952;42.884;23.918;2022-11-20T11:28:19;43.25;;;40.10;;
41221;SDS011;26952;42.884;23.918;2022-11-20T11:30:46;37.65;;;35.05;;
41221;SDS011;26952;42.884;23.918;2022-11-20T11:35:49;34.25;;;32.05;;
41221;SDS011;26952;42.884;23.918;2022-11-20T11:40:56;36.50;;;33.85;;
41221;SDS011;26952;42.884;23.918;2022-11-20T11:43:24;31.88;;;29.35;;
41221;SDS011;26952;42.884;23.918;2022-11-20T11:46:52;40.35;;;37.15;;
41221;SDS011;26952;42.884;23.918;2022-11-20T11:51:32;41.72;;;38.53;;
41221;SDS011;26952;42.884;23.918;2022-11-20T11:54:05;43.45;;;40.15;;
41221;SDS011;26952;42.884;23.918;2022-11-20T11:56:42;42.50;;;39.10;;
41221;SDS011;26952;42.884;23.918;2022-11-20T11:59:09;46.05;;;42.30;;
41221;SDS011;26952;42.884;23.918;2022-11-20T12:01:59;50.17;;;45.80;;
41221;SDS011;26952;42.884;23.918;2022-11-20T12:04:39;47.88;;;43.38;;
41221;SDS011;26952;42.884;23.918;2022-11-20T12:07:20;48.25;;;43.67;;
41221;SDS011;26952;42.884;23.918;2022-11-20T12:09:48;53.10;;;47.03;;
41221;SDS011;26952;42.884;23.918;2022-11-20T12:12:18;56.38;;;49.33;;
41221;SDS011;26952;42.884;23.918;2022-11-20T12:14:47;67.32;;;51.15;;
41221;SDS011;26952;42.884;23.918;2022-11-20T12:17:16;46.10;;;41.90;;
41221;SDS011;26952;42.884;23.918;2022-11-20T12:19:43;41.25;;;37.88;;
41221;SDS011;26952;42.884;23.918;2022-11-20T12:22:18;40.97;;;37.75;;
41221;SDS011;26952;42.884;23.918;2022-11-20T12:25:24;38.83;;;35.35;;
41221;SDS011;26952;42.884;23.918;2022-11-20T12:30:20;40.03;;;36.90;;
41221;SDS011;26952;42.884;23.918;2022-11-20T12:48:07;20.15;;;18.77;;
41221;SDS011;26952;42.884;23.918;2022-11-20T12:53:09;28.63;;;26.13;;
41221;SDS011;26952;42.884;23.918;2022-11-20T12:55:59;28.33;;;26.13;;
41221;SDS011;26952;42.884;23.918;2022-11-20T13:03:56;22.15;;;20.50;;
41221;SDS011;26952;42.884;23.918;2022-11-20T13:06:26;22.60;;;20.77;;
41221;SDS011;26952;42.884;23.918;2022-11-20T13:08:55;21.05;;;19.52;;
41221;SDS011;26952;42.884;23.918;2022-11-20T13:11:30;21.35;;;19.85;;
41221;SDS011;26952;42.884;23.918;2022-11-20T13:17:33;19.73;;;18.13;;
41221;SDS011;26952;42.884;23.918;2022-11-20T13:20:02;20.52;;;19.10;;
41221;SDS011;26952;42.884;23.918;2022-11-20T13:22:44;19.75;;;18.42;;
41221;SDS011;26952;42.884;23.918;2022-11-20T13:28:00;15.10;;;14.20;;
41221;SDS011;26952;42.884;23.918;2022-11-20T13:30:29;17.60;;;16.20;;
41221;SDS011;26952;42.884;23.918;2022-11-20T13:38:43;18.40;;;17.23;;
41221;SDS011;26952;42.884;23.918;2022-11-20T13:41:23;18.23;;;16.83;;
41221;SDS011;26952;42.884;23.918;2022-11-20T13:44:13;20.33;;;18.80;;
41221;SDS011;26952;42.884;23.918;2022-11-20T13:46:48;22.77;;;21.23;;
41221;SDS011;26952;42.884;23.918;2022-11-20T13:51:43;25.05;;;23.25;;
41221;SDS011;26952;42.884;23.918;2022-11-20T14:00:18;25.15;;;23.65;;
41221;SDS011;26952;42.884;23.918;2022-11-20T14:02:47;25.05;;;23.42;;
41221;SDS011;26952;42.884;23.918;2022-11-20T14:05:36;25.40;;;23.90;;
41221;SDS011;26952;42.884;23.918;2022-11-20T14:08:04;23.60;;;22.15;;
41221;SDS011;26952;42.884;23.918;2022-11-20T14:10:31;23.40;;;22.00;;
41221;SDS011;26952;42.884;23.918;2022-11-20T14:12:57;21.30;;;19.92;;
41221;SDS011;26952;42.884;23.918;2022-11-20T14:15:30;22.08;;;20.73;;
41221;SDS011;26952;42.884;23.918;2022-11-20T14:17:57;24.95;;;23.13;;
41221;SDS011;26952;42.884;23.918;2022-11-20T14:20:24;22.15;;;20.65;;
41221;SDS011;26952;42.884;23.918;2022-11-20T14:22:53;29.25;;;26.63;;
41221;SDS011;26952;42.884;23.918;2022-11-20T14:27:58;21.30;;;19.80;;
41221;SDS011;26952;42.884;23.918;2022-11-20T14:30:36;18.90;;;17.63;;
41221;SDS011;26952;42.884;23.918;2022-11-20T14:33:09;18.75;;;17.50;;
41221;SDS011;26952;42.884;23.918;2022-11-20T14:35:40;18.52;;;17.27;;
41221;SDS011;26952;42.884;23.918;2022-11-20T14:38:11;20.33;;;18.73;;
41221;SDS011;26952;42.884;23.918;2022-11-20T14:40:39;18.70;;;17.40;;
41221;SDS011;26952;42.884;23.918;2022-11-20T14:45:59;21.25;;;19.77;;
41221;SDS011;26952;42.884;23.918;2022-11-20T14:48:31;20.48;;;19.08;;
41221;SDS011;26952;42.884;23.918;2022-11-20T14:51:02;19.85;;;18.27;;
41221;SDS011;26952;42.884;23.918;2022-11-20T14:53:27;23.05;;;21.15;;
41221;SDS011;26952;42.884;23.918;2022-11-20T14:55:57;23.02;;;21.38;;
41221;SDS011;26952;42.884;23.918;2022-11-20T14:58:28;20.63;;;19.30;;
41221;SDS011;26952;42.884;23.918;2022-11-20T15:01:06;28.35;;;26.10;;
41221;SDS011;26952;42.884;23.918;2022-11-20T15:03:37;36.13;;;32.80;;
41221;SDS011;26952;42.884;23.918;2022-11-20T15:06:05;30.38;;;27.80;;
41221;SDS011;26952;42.884;23.918;2022-11-20T15:08:36;21.20;;;19.70;;
41221;SDS011;26952;42.884;23.918;2022-11-20T15:11:02;19.88;;;18.40;;
41221;SDS011;26952;42.884;23.918;2022-11-20T15:13:37;35.92;;;28.75;;
41221;SDS011;26952;42.884;23.918;2022-11-20T15:16:11;589.25;;;54.33;;
41221;SDS011;26952;42.884;23.918;2022-11-20T15:18:45;1230.47;;;80.22;;
41221;SDS011;26952;42.884;23.918;2022-11-20T15:21:12;41.53;;;35.13;;
41221;SDS011;26952;42.884;23.918;2022-11-20T15:23:39;586.40;;;54.95;;
41221;SDS011;26952;42.884;23.918;2022-11-20T15:26:05;43.88;;;38.15;;
41221;SDS011;26952;42.884;23.918;2022-11-20T15:28:36;46.58;;;41.67;;
41221;SDS011;26952;42.884;23.918;2022-11-20T15:31:04;45.20;;;40.72;;
41221;SDS011;26952;42.884;23.918;2022-11-20T15:33:31;48.15;;;43.47;;
41221;SDS011;26952;42.884;23.918;2022-11-20T15:35:56;56.78;;;50.92;;
41221;SDS011;26952;42.884;23.918;2022-11-20T15:38:22;42.28;;;38.13;;
41221;SDS011;26952;42.884;23.918;2022-11-20T15:40:48;45.53;;;40.90;;
41221;SDS011;26952;42.884;23.918;2022-11-20T15:43:13;49.83;;;37.88;;
41221;SDS011;26952;42.884;23.918;2022-11-20T15:45:41;43.30;;;39.15;;
41221;SDS011;26952;42.884;23.918;2022-11-20T15:48:17;51.20;;;45.60;;
41221;SDS011;26952;42.884;23.918;2022-11-20T15:51:06;49.83;;;44.63;;
41221;SDS011;26952;42.884;23.918;2022-11-20T15:53:31;41.38;;;37.05;;
41221;SDS011;26952;42.884;23.918;2022-11-20T15:55:57;41.28;;;36.97;;
41221;SDS011;26952;42.884;23.918;2022-11-20T15:58:22;38.20;;;34.60;;
41221;SDS011;26952;42.884;23.918;2022-11-20T16:00:49;40.65;;;36.60;;
41221;SDS011;26952;42.884;23.918;2022-11-20T16:03:15;32.67;;;29.90;;
41221;SDS011;26952;42.884;23.918;2022-11-20T16:05:41;29.88;;;27.33;;